Terminal Aerodrome Forecast
Issued by NWS

Home | Current Version | Previous Version | Text Only | Print | Product List | Glossary On
Versions: 1 2 3 4 5 6 7 8 9 10 11 12
807
FTUS45 KRIW 221725
TAFWRL
TAF
KWRL 221725Z 2218/2318 17007KT P6SM SCT100 BKN200
     FM222100 27011KT P6SM FEW070 BKN200
     FM230400 33011KT P6SM BKN070
     FM231300 30007KT P6SM SCT090=

USA.gov is the U.S. government's official web portal to all federal, state and local government web resources and services.